This is the latest recevied weather packets stored in our database for station/object WX1NWA. If no packets are shown the sender has not sent any weather packets the latest 10 day(s).
| Time | Temp. | Humidity | Pressure | Rain* | Wind** | Luminosity | Snow |
|---|---|---|---|---|---|---|---|
| 1777583387 | 13.33° C | 60% | 1018.8 hPa | 0 mm | - | 331 W/m² | - |
| 1777583086 | 15° C | 55% | 1019 hPa | 0 mm | - | 451 W/m² | - |
| 1777582783 | 13.89° C | 59% | 1019.1 hPa | 0 mm | - | 381 W/m² | - |
| 1777582478 | 13.89° C | 59% | 1019.1 hPa | 0 mm | - | 572 W/m² | - |
| 1777582173 | 14.44° C | 61% | 1018.7 hPa | 0 mm | - | 347 W/m² | - |
| 1777581872 | 13.89° C | 60% | 1019 hPa | 0 mm | - | 315 W/m² | - |
| 1777581567 | 14.44° C | 59% | 1019 hPa | 0 mm | - | 306 W/m² | - |
| 1777581262 | 13.89° C | 61% | 1019 hPa | 0 mm | - | 393 W/m² | - |
| 1777580957 | 14.44° C | 62% | 1019 hPa | 0 mm | - | 239 W/m² | - |
| 1777580657 | 13.89° C | 62% | 1019 hPa | 0 mm | - | 291 W/m² | - |
| 1777580352 | 13.89° C | 60% | 1019.1 hPa | 0 mm | - | 383 W/m² | - |
| 1777580049 | 13.89° C | 60% | 1018.8 hPa | 0 mm | - | 432 W/m² | - |
| 1777579745 | 13.89° C | 62% | 1019.2 hPa | 0 mm | - | 344 W/m² | - |
| 1777579444 | 14.44° C | 61% | 1019.1 hPa | 0 mm | - | 363 W/m² | - |
| 1777579139 | 13.89° C | 61% | 1019.3 hPa | 0 mm | - | 413 W/m² | - |
| 1777578838 | 13.89° C | 63% | 1019.2 hPa | 0 mm | - | 331 W/m² | - |
| 1777578535 | 13.89° C | 62% | 1019.5 hPa | 0 mm | - | 277 W/m² | - |
| 1777578229 | 13.33° C | 63% | 1019.6 hPa | 0 mm | - | 326 W/m² | - |
| 1777577925 | 13.89° C | 60% | 1019.6 hPa | 0 mm | - | 265 W/m² | - |
| 1777577621 | 13.89° C | 62% | 1019.6 hPa | 0 mm | - | 274 W/m² | - |
| 1777577318 | 13.33° C | 61% | 1019.8 hPa | 0 mm | - | 239 W/m² | - |
| 1777577014 | 13.33° C | 62% | 1019.8 hPa | 0 mm | - | 239 W/m² | - |
| 1777576712 | 14.44° C | 62% | 1019.9 hPa | 0 mm | - | 238 W/m² | - |
| 1777576410 | 14.44° C | 61% | 1020.2 hPa | 0 mm | - | 239 W/m² | - |
| 1777576107 | 13.89° C | 60% | 1020 hPa | 0 mm | - | 277 W/m² | - |
* Rain latest hour (hover to see other rain measurements)
** Current wind speed in m/s (hover to see current wind gust speed)